sensor_id;sensor_type;location;lat;lon;timestamp;P1;durP1;ratioP1;P2;durP2;ratioP2
21032;SDS011;10675;47.976;7.824;2023-04-03T00:01:31;4.63;;;2.30;;
21032;SDS011;10675;47.976;7.824;2023-04-03T00:03:57;4.13;;;2.10;;
21032;SDS011;10675;47.976;7.824;2023-04-03T00:06:23;2.27;;;2.00;;
21032;SDS011;10675;47.976;7.824;2023-04-03T00:08:50;2.70;;;2.13;;
21032;SDS011;10675;47.976;7.824;2023-04-03T00:11:16;2.03;;;1.87;;
21032;SDS011;10675;47.976;7.824;2023-04-03T00:13:42;2.47;;;2.00;;
21032;SDS011;10675;47.976;7.824;2023-04-03T00:16:08;3.87;;;2.10;;
21032;SDS011;10675;47.976;7.824;2023-04-03T00:18:35;4.93;;;2.37;;
21032;SDS011;10675;47.976;7.824;2023-04-03T00:21:02;2.30;;;2.10;;
21032;SDS011;10675;47.976;7.824;2023-04-03T00:23:28;2.53;;;2.20;;
21032;SDS011;10675;47.976;7.824;2023-04-03T00:25:53;2.03;;;1.90;;
21032;SDS011;10675;47.976;7.824;2023-04-03T00:28:20;2.53;;;2.10;;
21032;SDS011;10675;47.976;7.824;2023-04-03T00:30:46;2.27;;;2.07;;
21032;SDS011;10675;47.976;7.824;2023-04-03T00:33:13;2.20;;;2.00;;
21032;SDS011;10675;47.976;7.824;2023-04-03T00:35:39;2.53;;;2.00;;
21032;SDS011;10675;47.976;7.824;2023-04-03T00:38:04;2.63;;;2.20;;
21032;SDS011;10675;47.976;7.824;2023-04-03T00:40:33;2.10;;;1.90;;
21032;SDS011;10675;47.976;7.824;2023-04-03T00:43:00;3.33;;;2.20;;
21032;SDS011;10675;47.976;7.824;2023-04-03T00:45:28;2.67;;;1.90;;
21032;SDS011;10675;47.976;7.824;2023-04-03T00:47:57;1.80;;;1.70;;
21032;SDS011;10675;47.976;7.824;2023-04-03T00:50:25;2.53;;;1.90;;
21032;SDS011;10675;47.976;7.824;2023-04-03T00:52:51;4.27;;;2.00;;
21032;SDS011;10675;47.976;7.824;2023-04-03T00:55:18;2.97;;;2.07;;
21032;SDS011;10675;47.976;7.824;2023-04-03T00:57:44;3.00;;;2.30;;
21032;SDS011;10675;47.976;7.824;2023-04-03T01:00:12;2.20;;;1.87;;
21032;SDS011;10675;47.976;7.824;2023-04-03T01:02:41;2.17;;;1.83;;
21032;SDS011;10675;47.976;7.824;2023-04-03T01:05:06;2.00;;;1.90;;
21032;SDS011;10675;47.976;7.824;2023-04-03T01:07:33;3.23;;;2.27;;
21032;SDS011;10675;47.976;7.824;2023-04-03T01:10:00;2.20;;;2.00;;
21032;SDS011;10675;47.976;7.824;2023-04-03T01:12:32;2.10;;;1.90;;
21032;SDS011;10675;47.976;7.824;2023-04-03T01:15:00;2.07;;;1.63;;
21032;SDS011;10675;47.976;7.824;2023-04-03T01:25:36;2.67;;;1.60;;
21032;SDS011;10675;47.976;7.824;2023-04-03T01:28:07;2.07;;;1.67;;
21032;SDS011;10675;47.976;7.824;2023-04-03T01:30:37;3.10;;;2.00;;
21032;SDS011;10675;47.976;7.824;2023-04-03T01:33:11;1.90;;;1.70;;
21032;SDS011;10675;47.976;7.824;2023-04-03T01:35:37;2.10;;;1.60;;
21032;SDS011;10675;47.976;7.824;2023-04-03T01:38:02;2.73;;;1.83;;
21032;SDS011;10675;47.976;7.824;2023-04-03T01:40:28;1.70;;;1.60;;
21032;SDS011;10675;47.976;7.824;2023-04-03T01:42:53;1.93;;;1.53;;
21032;SDS011;10675;47.976;7.824;2023-04-03T01:45:19;1.70;;;1.60;;
21032;SDS011;10675;47.976;7.824;2023-04-03T01:47:44;2.73;;;1.73;;
21032;SDS011;10675;47.976;7.824;2023-04-03T01:50:10;3.13;;;2.00;;
21032;SDS011;10675;47.976;7.824;2023-04-03T01:52:36;1.53;;;1.43;;
21032;SDS011;10675;47.976;7.824;2023-04-03T01:55:01;2.23;;;1.60;;
21032;SDS011;10675;47.976;7.824;2023-04-03T01:57:27;2.10;;;1.80;;
21032;SDS011;10675;47.976;7.824;2023-04-03T01:59:52;1.80;;;1.70;;
21032;SDS011;10675;47.976;7.824;2023-04-03T02:02:18;1.40;;;1.30;;
21032;SDS011;10675;47.976;7.824;2023-04-03T02:04:45;3.23;;;1.60;;
21032;SDS011;10675;47.976;7.824;2023-04-03T02:07:10;1.57;;;1.40;;
21032;SDS011;10675;47.976;7.824;2023-04-03T02:09:36;1.73;;;1.60;;
21032;SDS011;10675;47.976;7.824;2023-04-03T02:12:01;1.77;;;1.63;;
21032;SDS011;10675;47.976;7.824;2023-04-03T02:14:27;1.80;;;1.47;;
21032;SDS011;10675;47.976;7.824;2023-04-03T02:16:53;1.60;;;1.50;;
21032;SDS011;10675;47.976;7.824;2023-04-03T02:19:19;1.67;;;1.53;;
21032;SDS011;10675;47.976;7.824;2023-04-03T02:21:45;1.60;;;1.50;;
21032;SDS011;10675;47.976;7.824;2023-04-03T02:24:10;2.83;;;1.67;;
21032;SDS011;10675;47.976;7.824;2023-04-03T02:26:36;2.03;;;1.60;;
21032;SDS011;10675;47.976;7.824;2023-04-03T02:29:01;2.03;;;1.73;;
21032;SDS011;10675;47.976;7.824;2023-04-03T02:31:27;2.67;;;1.93;;
21032;SDS011;10675;47.976;7.824;2023-04-03T02:33:53;2.00;;;1.60;;
21032;SDS011;10675;47.976;7.824;2023-04-03T02:36:19;2.40;;;2.10;;
21032;SDS011;10675;47.976;7.824;2023-04-03T02:38:44;1.97;;;1.77;;
21032;SDS011;10675;47.976;7.824;2023-04-03T02:41:10;2.20;;;2.00;;
21032;SDS011;10675;47.976;7.824;2023-04-03T02:43:37;1.93;;;1.73;;
21032;SDS011;10675;47.976;7.824;2023-04-03T02:46:03;1.53;;;1.43;;
21032;SDS011;10675;47.976;7.824;2023-04-03T02:48:29;1.60;;;1.50;;
21032;SDS011;10675;47.976;7.824;2023-04-03T02:50:55;3.43;;;1.93;;
21032;SDS011;10675;47.976;7.824;2023-04-03T02:53:21;2.17;;;1.77;;
21032;SDS011;10675;47.976;7.824;2023-04-03T02:55:47;2.63;;;1.50;;
21032;SDS011;10675;47.976;7.824;2023-04-03T02:58:13;2.27;;;1.73;;
21032;SDS011;10675;47.976;7.824;2023-04-03T03:00:39;3.53;;;2.17;;
21032;SDS011;10675;47.976;7.824;2023-04-03T03:03:05;1.67;;;1.57;;
21032;SDS011;10675;47.976;7.824;2023-04-03T03:05:31;1.83;;;1.70;;
21032;SDS011;10675;47.976;7.824;2023-04-03T03:07:56;2.10;;;1.83;;
21032;SDS011;10675;47.976;7.824;2023-04-03T03:10:22;1.93;;;1.80;;
21032;SDS011;10675;47.976;7.824;2023-04-03T03:12:48;2.03;;;1.90;;
21032;SDS011;10675;47.976;7.824;2023-04-03T03:15:13;2.20;;;1.90;;
21032;SDS011;10675;47.976;7.824;2023-04-03T03:17:40;2.10;;;1.90;;
21032;SDS011;10675;47.976;7.824;2023-04-03T03:20:06;1.67;;;1.50;;
21032;SDS011;10675;47.976;7.824;2023-04-03T03:22:32;2.50;;;1.97;;
21032;SDS011;10675;47.976;7.824;2023-04-03T03:24:59;1.97;;;1.87;;
21032;SDS011;10675;47.976;7.824;2023-04-03T03:27:25;1.90;;;1.80;;
21032;SDS011;10675;47.976;7.824;2023-04-03T03:29:51;2.57;;;1.90;;
21032;SDS011;10675;47.976;7.824;2023-04-03T03:32:17;2.93;;;1.40;;
21032;SDS011;10675;47.976;7.824;2023-04-03T03:34:42;2.20;;;1.93;;
21032;SDS011;10675;47.976;7.824;2023-04-03T03:37:08;2.00;;;1.70;;
21032;SDS011;10675;47.976;7.824;2023-04-03T03:39:33;2.00;;;1.70;;
21032;SDS011;10675;47.976;7.824;2023-04-03T03:41:59;3.23;;;1.80;;
21032;SDS011;10675;47.976;7.824;2023-04-03T03:44:24;2.80;;;1.90;;
21032;SDS011;10675;47.976;7.824;2023-04-03T03:46:50;1.90;;;1.63;;
21032;SDS011;10675;47.976;7.824;2023-04-03T03:49:15;1.83;;;1.73;;
21032;SDS011;10675;47.976;7.824;2023-04-03T03:51:41;2.17;;;1.73;;
21032;SDS011;10675;47.976;7.824;2023-04-03T03:54:06;2.00;;;1.90;;
21032;SDS011;10675;47.976;7.824;2023-04-03T03:56:32;1.77;;;1.50;;
21032;SDS011;10675;47.976;7.824;2023-04-03T03:58:58;1.60;;;1.50;;
21032;SDS011;10675;47.976;7.824;2023-04-03T04:01:24;2.57;;;1.83;;
21032;SDS011;10675;47.976;7.824;2023-04-03T04:03:49;2.53;;;1.77;;
21032;SDS011;10675;47.976;7.824;2023-04-03T04:06:15;2.27;;;1.50;;
21032;SDS011;10675;47.976;7.824;2023-04-03T04:08:41;2.17;;;1.83;;
21032;SDS011;10675;47.976;7.824;2023-04-03T04:11:07;1.97;;;1.47;;
21032;SDS011;10675;47.976;7.824;2023-04-03T04:13:32;1.97;;;1.60;;
21032;SDS011;10675;47.976;7.824;2023-04-03T04:15:58;1.90;;;1.77;;
21032;SDS011;10675;47.976;7.824;2023-04-03T04:18:24;4.17;;;1.60;;
21032;SDS011;10675;47.976;7.824;2023-04-03T04:20:50;1.23;;;1.20;;
21032;SDS011;10675;47.976;7.824;2023-04-03T04:23:16;2.13;;;1.40;;
21032;SDS011;10675;47.976;7.824;2023-04-03T04:25:46;1.33;;;1.23;;
21032;SDS011;10675;47.976;7.824;2023-04-03T04:28:13;1.70;;;1.60;;
21032;SDS011;10675;47.976;7.824;2023-04-03T04:30:38;1.67;;;1.53;;
21032;SDS011;10675;47.976;7.824;2023-04-03T04:33:04;1.20;;;1.10;;
21032;SDS011;10675;47.976;7.824;2023-04-03T04:35:30;1.50;;;1.40;;
21032;SDS011;10675;47.976;7.824;2023-04-03T04:37:56;2.23;;;1.73;;
21032;SDS011;10675;47.976;7.824;2023-04-03T04:40:21;1.53;;;1.43;;
21032;SDS011;10675;47.976;7.824;2023-04-03T04:42:47;1.67;;;1.30;;
21032;SDS011;10675;47.976;7.824;2023-04-03T04:45:13;1.37;;;1.27;;
21032;SDS011;10675;47.976;7.824;2023-04-03T04:47:39;1.50;;;1.40;;
21032;SDS011;10675;47.976;7.824;2023-04-03T04:50:05;1.53;;;1.30;;
21032;SDS011;10675;47.976;7.824;2023-04-03T04:52:31;2.70;;;1.60;;
21032;SDS011;10675;47.976;7.824;2023-04-03T04:54:57;1.30;;;1.20;;
21032;SDS011;10675;47.976;7.824;2023-04-03T04:57:23;2.20;;;1.77;;
21032;SDS011;10675;47.976;7.824;2023-04-03T04:59:48;1.57;;;1.40;;
21032;SDS011;10675;47.976;7.824;2023-04-03T05:02:14;1.50;;;1.40;;
21032;SDS011;10675;47.976;7.824;2023-04-03T05:04:40;1.50;;;1.30;;
21032;SDS011;10675;47.976;7.824;2023-04-03T05:07:05;2.57;;;1.87;;
21032;SDS011;10675;47.976;7.824;2023-04-03T05:09:31;1.17;;;1.17;;
21032;SDS011;10675;47.976;7.824;2023-04-03T05:11:56;1.63;;;1.40;;
21032;SDS011;10675;47.976;7.824;2023-04-03T05:14:22;1.60;;;1.43;;
21032;SDS011;10675;47.976;7.824;2023-04-03T05:16:48;1.83;;;1.63;;
21032;SDS011;10675;47.976;7.824;2023-04-03T05:19:13;2.10;;;1.33;;
21032;SDS011;10675;47.976;7.824;2023-04-03T05:21:39;3.33;;;1.50;;
21032;SDS011;10675;47.976;7.824;2023-04-03T05:24:05;1.50;;;1.40;;
21032;SDS011;10675;47.976;7.824;2023-04-03T05:26:34;4.20;;;1.73;;
21032;SDS011;10675;47.976;7.824;2023-04-03T05:28:59;1.60;;;1.40;;
21032;SDS011;10675;47.976;7.824;2023-04-03T05:31:25;1.87;;;1.60;;
21032;SDS011;10675;47.976;7.824;2023-04-03T05:33:50;1.60;;;1.50;;
21032;SDS011;10675;47.976;7.824;2023-04-03T05:36:16;1.47;;;1.37;;
21032;SDS011;10675;47.976;7.824;2023-04-03T05:38:42;1.60;;;1.37;;
21032;SDS011;10675;47.976;7.824;2023-04-03T05:41:07;2.23;;;1.70;;
21032;SDS011;10675;47.976;7.824;2023-04-03T05:43:33;1.60;;;1.50;;
21032;SDS011;10675;47.976;7.824;2023-04-03T05:45:59;1.67;;;1.57;;
21032;SDS011;10675;47.976;7.824;2023-04-03T05:48:25;1.87;;;1.70;;
21032;SDS011;10675;47.976;7.824;2023-04-03T05:50:50;2.03;;;1.70;;
21032;SDS011;10675;47.976;7.824;2023-04-03T05:53:27;1.90;;;1.73;;
21032;SDS011;10675;47.976;7.824;2023-04-03T05:55:54;1.93;;;1.57;;
21032;SDS011;10675;47.976;7.824;2023-04-03T05:58:20;2.03;;;1.80;;
21032;SDS011;10675;47.976;7.824;2023-04-03T06:00:45;2.30;;;1.80;;
21032;SDS011;10675;47.976;7.824;2023-04-03T06:03:11;1.67;;;1.57;;
21032;SDS011;10675;47.976;7.824;2023-04-03T06:05:36;1.97;;;1.87;;
21032;SDS011;10675;47.976;7.824;2023-04-03T06:08:02;3.37;;;1.97;;
21032;SDS011;10675;47.976;7.824;2023-04-03T06:10:28;2.93;;;1.93;;
21032;SDS011;10675;47.976;7.824;2023-04-03T06:12:54;2.37;;;2.00;;
21032;SDS011;10675;47.976;7.824;2023-04-03T06:15:19;3.33;;;1.93;;
21032;SDS011;10675;47.976;7.824;2023-04-03T06:17:46;2.90;;;2.07;;
21032;SDS011;10675;47.976;7.824;2023-04-03T06:20:11;4.07;;;1.47;;
21032;SDS011;10675;47.976;7.824;2023-04-03T06:22:38;2.70;;;1.90;;
21032;SDS011;10675;47.976;7.824;2023-04-03T06:25:04;3.67;;;1.90;;
21032;SDS011;10675;47.976;7.824;2023-04-03T06:27:31;2.00;;;1.90;;
21032;SDS011;10675;47.976;7.824;2023-04-03T06:29:56;2.47;;;1.93;;
21032;SDS011;10675;47.976;7.824;2023-04-03T06:32:22;2.17;;;1.73;;
21032;SDS011;10675;47.976;7.824;2023-04-03T06:34:48;3.50;;;2.00;;
21032;SDS011;10675;47.976;7.824;2023-04-03T06:37:17;4.33;;;1.80;;
21032;SDS011;10675;47.976;7.824;2023-04-03T06:39:45;2.03;;;1.80;;
21032;SDS011;10675;47.976;7.824;2023-04-03T06:42:11;4.00;;;1.80;;
21032;SDS011;10675;47.976;7.824;2023-04-03T06:44:36;3.60;;;1.80;;
21032;SDS011;10675;47.976;7.824;2023-04-03T06:47:02;3.40;;;1.83;;
21032;SDS011;10675;47.976;7.824;2023-04-03T06:49:28;1.77;;;1.67;;
21032;SDS011;10675;47.976;7.824;2023-04-03T06:51:54;2.20;;;1.90;;
21032;SDS011;10675;47.976;7.824;2023-04-03T06:54:21;4.57;;;2.07;;
21032;SDS011;10675;47.976;7.824;2023-04-03T06:56:47;2.37;;;1.73;;
21032;SDS011;10675;47.976;7.824;2023-04-03T06:59:13;2.03;;;1.83;;
21032;SDS011;10675;47.976;7.824;2023-04-03T07:01:40;2.27;;;1.97;;
21032;SDS011;10675;47.976;7.824;2023-04-03T07:04:05;1.90;;;1.80;;
21032;SDS011;10675;47.976;7.824;2023-04-03T07:06:32;1.20;;;1.10;;
21032;SDS011;10675;47.976;7.824;2023-04-03T07:08:58;1.57;;;1.47;;
21032;SDS011;10675;47.976;7.824;2023-04-03T07:11:25;1.33;;;1.23;;
21032;SDS011;10675;47.976;7.824;2023-04-03T07:13:51;1.30;;;1.20;;
21032;SDS011;10675;47.976;7.824;2023-04-03T07:16:16;1.20;;;1.10;;
21032;SDS011;10675;47.976;7.824;2023-04-03T07:18:42;5.40;;;1.60;;
21032;SDS011;10675;47.976;7.824;2023-04-03T07:21:07;1.20;;;1.10;;
21032;SDS011;10675;47.976;7.824;2023-04-03T07:23:33;1.20;;;1.10;;
21032;SDS011;10675;47.976;7.824;2023-04-03T07:25:58;1.33;;;1.23;;
21032;SDS011;10675;47.976;7.824;2023-04-03T07:28:24;1.07;;;1.07;;
21032;SDS011;10675;47.976;7.824;2023-04-03T07:30:58;1.43;;;1.27;;
21032;SDS011;10675;47.976;7.824;2023-04-03T07:33:26;1.10;;;1.10;;
21032;SDS011;10675;47.976;7.824;2023-04-03T07:35:51;1.53;;;1.43;;
21032;SDS011;10675;47.976;7.824;2023-04-03T07:38:17;1.43;;;1.33;;
21032;SDS011;10675;47.976;7.824;2023-04-03T07:43:11;1.37;;;1.27;;
21032;SDS011;10675;47.976;7.824;2023-04-03T07:45:36;1.47;;;1.37;;
21032;SDS011;10675;47.976;7.824;2023-04-03T07:48:02;2.30;;;1.50;;
21032;SDS011;10675;47.976;7.824;2023-04-03T07:50:27;1.50;;;1.37;;
21032;SDS011;10675;47.976;7.824;2023-04-03T07:52:55;1.67;;;1.50;;
21032;SDS011;10675;47.976;7.824;2023-04-03T07:55:22;2.70;;;1.50;;
21032;SDS011;10675;47.976;7.824;2023-04-03T07:57:48;1.87;;;1.30;;
21032;SDS011;10675;47.976;7.824;2023-04-03T08:00:14;1.73;;;1.50;;
21032;SDS011;10675;47.976;7.824;2023-04-03T08:02:42;1.73;;;1.57;;
21032;SDS011;10675;47.976;7.824;2023-04-03T08:05:09;1.63;;;1.50;;
21032;SDS011;10675;47.976;7.824;2023-04-03T08:07:36;1.60;;;1.50;;
21032;SDS011;10675;47.976;7.824;2023-04-03T08:10:02;1.60;;;1.50;;
21032;SDS011;10675;47.976;7.824;2023-04-03T08:12:28;2.30;;;2.03;;
21032;SDS011;10675;47.976;7.824;2023-04-03T08:14:54;4.03;;;1.67;;
21032;SDS011;10675;47.976;7.824;2023-04-03T08:17:20;1.37;;;1.27;;
21032;SDS011;10675;47.976;7.824;2023-04-03T08:19:46;1.70;;;1.60;;
21032;SDS011;10675;47.976;7.824;2023-04-03T08:22:12;1.43;;;1.33;;
21032;SDS011;10675;47.976;7.824;2023-04-03T08:24:37;1.83;;;1.57;;
21032;SDS011;10675;47.976;7.824;2023-04-03T08:27:03;1.60;;;1.50;;
21032;SDS011;10675;47.976;7.824;2023-04-03T08:29:29;2.40;;;1.90;;
21032;SDS011;10675;47.976;7.824;2023-04-03T08:31:54;2.30;;;2.10;;
21032;SDS011;10675;47.976;7.824;2023-04-03T08:34:20;1.77;;;1.53;;
21032;SDS011;10675;47.976;7.824;2023-04-03T08:36:46;3.27;;;2.00;;
21032;SDS011;10675;47.976;7.824;2023-04-03T08:39:12;1.90;;;1.80;;
21032;SDS011;10675;47.976;7.824;2023-04-03T08:41:38;2.23;;;1.70;;
21032;SDS011;10675;47.976;7.824;2023-04-03T08:49:48;2.17;;;1.97;;
21032;SDS011;10675;47.976;7.824;2023-04-03T08:55:13;2.97;;;1.90;;
21032;SDS011;10675;47.976;7.824;2023-04-03T08:58:00;2.03;;;1.70;;
21032;SDS011;10675;47.976;7.824;2023-04-03T09:03:53;1.90;;;1.80;;
21032;SDS011;10675;47.976;7.824;2023-04-03T09:06:20;2.50;;;2.10;;
21032;SDS011;10675;47.976;7.824;2023-04-03T09:09:00;2.37;;;2.00;;
21032;SDS011;10675;47.976;7.824;2023-04-03T09:16:52;2.03;;;1.83;;
21032;SDS011;10675;47.976;7.824;2023-04-03T09:19:37;2.43;;;1.90;;
21032;SDS011;10675;47.976;7.824;2023-04-03T09:22:25;4.23;;;1.80;;
21032;SDS011;10675;47.976;7.824;2023-04-03T09:25:00;3.83;;;1.80;;
21032;SDS011;10675;47.976;7.824;2023-04-03T09:27:33;1.67;;;1.57;;
21032;SDS011;10675;47.976;7.824;2023-04-03T09:29:59;2.10;;;1.93;;
21032;SDS011;10675;47.976;7.824;2023-04-03T09:32:26;2.20;;;2.00;;
21032;SDS011;10675;47.976;7.824;2023-04-03T09:34:52;1.87;;;1.77;;
21032;SDS011;10675;47.976;7.824;2023-04-03T09:37:34;1.67;;;1.57;;
21032;SDS011;10675;47.976;7.824;2023-04-03T09:40:01;1.83;;;1.73;;
21032;SDS011;10675;47.976;7.824;2023-04-03T09:42:29;1.77;;;1.67;;
21032;SDS011;10675;47.976;7.824;2023-04-03T09:44:57;1.67;;;1.50;;
21032;SDS011;10675;47.976;7.824;2023-04-03T09:49:56;2.30;;;2.00;;
21032;SDS011;10675;47.976;7.824;2023-04-03T09:52:34;1.70;;;1.60;;
21032;SDS011;10675;47.976;7.824;2023-04-03T09:55:06;2.00;;;1.67;;
21032;SDS011;10675;47.976;7.824;2023-04-03T09:57:42;2.10;;;1.90;;
21032;SDS011;10675;47.976;7.824;2023-04-03T10:00:41;1.57;;;1.47;;
21032;SDS011;10675;47.976;7.824;2023-04-03T10:03:00;1.30;;;1.20;;
21032;SDS011;10675;47.976;7.824;2023-04-03T10:05:32;1.50;;;1.40;;
21032;SDS011;10675;47.976;7.824;2023-04-03T10:10:40;2.70;;;1.53;;
21032;SDS011;10675;47.976;7.824;2023-04-03T10:13:15;1.53;;;1.43;;
21032;SDS011;10675;47.976;7.824;2023-04-03T10:15:44;1.50;;;1.30;;
21032;SDS011;10675;47.976;7.824;2023-04-03T10:19:02;1.10;;;1.10;;
21032;SDS011;10675;47.976;7.824;2023-04-03T10:24:10;1.07;;;1.07;;
21032;SDS011;10675;47.976;7.824;2023-04-03T10:26:58;1.47;;;1.37;;
21032;SDS011;10675;47.976;7.824;2023-04-03T10:29:40;1.73;;;1.40;;
21032;SDS011;10675;47.976;7.824;2023-04-03T10:38:04;1.87;;;1.37;;
21032;SDS011;10675;47.976;7.824;2023-04-03T10:40:45;1.23;;;1.13;;
21032;SDS011;10675;47.976;7.824;2023-04-03T10:43:43;1.17;;;1.07;;
21032;SDS011;10675;47.976;7.824;2023-04-03T10:46:19;1.20;;;1.20;;
21032;SDS011;10675;47.976;7.824;2023-04-03T10:49:01;1.47;;;1.37;;
21032;SDS011;10675;47.976;7.824;2023-04-03T10:54:36;1.60;;;1.50;;
21032;SDS011;10675;47.976;7.824;2023-04-03T10:57:08;2.73;;;1.47;;
21032;SDS011;10675;47.976;7.824;2023-04-03T10:59:37;1.30;;;1.20;;
21032;SDS011;10675;47.976;7.824;2023-04-03T11:02:06;1.50;;;1.40;;
21032;SDS011;10675;47.976;7.824;2023-04-03T11:04:36;1.60;;;1.50;;
21032;SDS011;10675;47.976;7.824;2023-04-03T11:07:14;1.20;;;1.10;;
21032;SDS011;10675;47.976;7.824;2023-04-03T11:09:46;1.30;;;1.20;;
21032;SDS011;10675;47.976;7.824;2023-04-03T11:12:19;2.60;;;1.40;;
21032;SDS011;10675;47.976;7.824;2023-04-03T11:14:50;2.03;;;1.17;;
21032;SDS011;10675;47.976;7.824;2023-04-03T11:19:49;1.40;;;1.30;;
21032;SDS011;10675;47.976;7.824;2023-04-03T11:22:25;1.70;;;1.33;;
21032;SDS011;10675;47.976;7.824;2023-04-03T11:24:57;0.97;;;0.97;;
21032;SDS011;10675;47.976;7.824;2023-04-03T11:27:30;2.17;;;1.37;;
21032;SDS011;10675;47.976;7.824;2023-04-03T11:30:07;1.20;;;1.20;;
21032;SDS011;10675;47.976;7.824;2023-04-03T11:33:04;1.30;;;1.20;;
21032;SDS011;10675;47.976;7.824;2023-04-03T11:35:51;1.33;;;1.20;;
21032;SDS011;10675;47.976;7.824;2023-04-03T11:38:21;1.40;;;1.30;;
21032;SDS011;10675;47.976;7.824;2023-04-03T11:41:04;1.83;;;1.63;;
21032;SDS011;10675;47.976;7.824;2023-04-03T11:43:32;1.23;;;1.20;;
21032;SDS011;10675;47.976;7.824;2023-04-03T11:45:59;2.47;;;1.50;;
21032;SDS011;10675;47.976;7.824;2023-04-03T11:53:41;1.40;;;1.30;;
21032;SDS011;10675;47.976;7.824;2023-04-03T11:58:52;1.40;;;1.30;;
21032;SDS011;10675;47.976;7.824;2023-04-03T12:01:55;1.63;;;1.43;;
21032;SDS011;10675;47.976;7.824;2023-04-03T12:04:23;1.33;;;1.23;;
21032;SDS011;10675;47.976;7.824;2023-04-03T12:06:53;2.97;;;1.33;;
21032;SDS011;10675;47.976;7.824;2023-04-03T12:10:13;2.60;;;1.33;;
21032;SDS011;10675;47.976;7.824;2023-04-03T12:12:29;1.07;;;1.03;;
21032;SDS011;10675;47.976;7.824;2023-04-03T12:21:04;1.50;;;1.37;;
21032;SDS011;10675;47.976;7.824;2023-04-03T12:23:34;2.07;;;1.40;;
21032;SDS011;10675;47.976;7.824;2023-04-03T12:26:02;1.23;;;1.20;;
21032;SDS011;10675;47.976;7.824;2023-04-03T12:28:40;1.27;;;1.17;;
21032;SDS011;10675;47.976;7.824;2023-04-03T12:31:08;1.20;;;1.10;;
21032;SDS011;10675;47.976;7.824;2023-04-03T12:36:15;2.50;;;1.60;;
21032;SDS011;10675;47.976;7.824;2023-04-03T12:38:58;2.03;;;1.30;;
21032;SDS011;10675;47.976;7.824;2023-04-03T12:47:47;1.37;;;1.27;;
21032;SDS011;10675;47.976;7.824;2023-04-03T12:55:39;1.60;;;1.50;;
21032;SDS011;10675;47.976;7.824;2023-04-03T12:58:24;2.57;;;1.30;;
21032;SDS011;10675;47.976;7.824;2023-04-03T13:01:02;1.57;;;1.47;;
21032;SDS011;10675;47.976;7.824;2023-04-03T13:03:28;1.40;;;1.30;;
21032;SDS011;10675;47.976;7.824;2023-04-03T13:05:59;2.20;;;1.87;;
21032;SDS011;10675;47.976;7.824;2023-04-03T13:08:26;1.37;;;1.27;;
21032;SDS011;10675;47.976;7.824;2023-04-03T13:10:57;1.50;;;1.40;;
21032;SDS011;10675;47.976;7.824;2023-04-03T13:13:27;1.40;;;1.30;;
21032;SDS011;10675;47.976;7.824;2023-04-03T13:15:53;1.53;;;1.43;;
21032;SDS011;10675;47.976;7.824;2023-04-03T13:20:51;1.70;;;1.60;;
21032;SDS011;10675;47.976;7.824;2023-04-03T13:23:18;1.40;;;1.30;;
21032;SDS011;10675;47.976;7.824;2023-04-03T13:25:46;1.40;;;1.30;;
21032;SDS011;10675;47.976;7.824;2023-04-03T13:28:21;1.43;;;1.33;;
21032;SDS011;10675;47.976;7.824;2023-04-03T13:30:56;1.70;;;1.50;;
21032;SDS011;10675;47.976;7.824;2023-04-03T13:33:32;2.20;;;1.60;;
21032;SDS011;10675;47.976;7.824;2023-04-03T13:36:19;2.90;;;1.40;;
21032;SDS011;10675;47.976;7.824;2023-04-03T13:38:57;1.70;;;1.60;;
21032;SDS011;10675;47.976;7.824;2023-04-03T13:41:25;3.03;;;1.47;;
21032;SDS011;10675;47.976;7.824;2023-04-03T13:46:47;1.50;;;1.40;;
21032;SDS011;10675;47.976;7.824;2023-04-03T13:51:51;2.20;;;1.50;;
21032;SDS011;10675;47.976;7.824;2023-04-03T13:54:19;1.27;;;1.17;;
21032;SDS011;10675;47.976;7.824;2023-04-03T13:56:51;1.13;;;1.13;;
21032;SDS011;10675;47.976;7.824;2023-04-03T13:59:21;1.37;;;1.27;;
21032;SDS011;10675;47.976;7.824;2023-04-03T14:04:29;2.37;;;1.37;;
21032;SDS011;10675;47.976;7.824;2023-04-03T14:06:56;1.57;;;1.47;;
21032;SDS011;10675;47.976;7.824;2023-04-03T14:09:23;1.30;;;1.20;;
21032;SDS011;10675;47.976;7.824;2023-04-03T14:11:52;1.60;;;1.23;;
21032;SDS011;10675;47.976;7.824;2023-04-03T14:14:24;3.13;;;1.47;;
21032;SDS011;10675;47.976;7.824;2023-04-03T14:16:54;1.37;;;1.27;;
21032;SDS011;10675;47.976;7.824;2023-04-03T14:19:25;1.50;;;1.40;;
21032;SDS011;10675;47.976;7.824;2023-04-03T14:21:53;1.23;;;1.07;;
21032;SDS011;10675;47.976;7.824;2023-04-03T14:24:20;2.23;;;1.40;;
21032;SDS011;10675;47.976;7.824;2023-04-03T14:26:46;1.40;;;1.30;;
21032;SDS011;10675;47.976;7.824;2023-04-03T14:29:13;1.97;;;1.37;;
21032;SDS011;10675;47.976;7.824;2023-04-03T14:31:40;1.27;;;1.17;;
21032;SDS011;10675;47.976;7.824;2023-04-03T14:34:08;3.50;;;1.23;;
21032;SDS011;10675;47.976;7.824;2023-04-03T14:36:35;1.30;;;1.20;;
21032;SDS011;10675;47.976;7.824;2023-04-03T14:39:02;1.93;;;1.43;;
21032;SDS011;10675;47.976;7.824;2023-04-03T14:41:28;1.83;;;1.47;;
21032;SDS011;10675;47.976;7.824;2023-04-03T14:43:54;1.47;;;1.30;;
21032;SDS011;10675;47.976;7.824;2023-04-03T14:48:55;1.47;;;1.37;;
21032;SDS011;10675;47.976;7.824;2023-04-03T14:51:21;3.43;;;1.70;;
21032;SDS011;10675;47.976;7.824;2023-04-03T14:53:47;1.37;;;1.30;;
21032;SDS011;10675;47.976;7.824;2023-04-03T14:56:15;1.30;;;1.20;;
21032;SDS011;10675;47.976;7.824;2023-04-03T14:58:49;1.33;;;1.23;;
21032;SDS011;10675;47.976;7.824;2023-04-03T15:01:21;2.33;;;1.50;;
21032;SDS011;10675;47.976;7.824;2023-04-03T15:03:47;1.30;;;1.20;;
21032;SDS011;10675;47.976;7.824;2023-04-03T15:06:12;2.70;;;1.23;;
21032;SDS011;10675;47.976;7.824;2023-04-03T15:08:39;1.63;;;1.47;;
21032;SDS011;10675;47.976;7.824;2023-04-03T15:11:07;2.13;;;1.47;;
21032;SDS011;10675;47.976;7.824;2023-04-03T15:13:33;2.70;;;1.30;;
21032;SDS011;10675;47.976;7.824;2023-04-03T15:15:58;1.50;;;1.40;;
21032;SDS011;10675;47.976;7.824;2023-04-03T15:18:25;1.63;;;1.40;;
21032;SDS011;10675;47.976;7.824;2023-04-03T15:20:52;1.90;;;1.47;;
21032;SDS011;10675;47.976;7.824;2023-04-03T15:23:19;1.47;;;1.37;;
21032;SDS011;10675;47.976;7.824;2023-04-03T15:25:50;1.40;;;1.30;;
21032;SDS011;10675;47.976;7.824;2023-04-03T15:28:27;1.57;;;1.40;;
21032;SDS011;10675;47.976;7.824;2023-04-03T15:31:04;1.50;;;1.40;;
21032;SDS011;10675;47.976;7.824;2023-04-03T15:33:31;1.40;;;1.30;;
21032;SDS011;10675;47.976;7.824;2023-04-03T15:35:59;2.00;;;1.57;;
21032;SDS011;10675;47.976;7.824;2023-04-03T15:38:25;1.30;;;1.20;;
21032;SDS011;10675;47.976;7.824;2023-04-03T15:40:50;1.70;;;1.33;;
21032;SDS011;10675;47.976;7.824;2023-04-03T15:43:16;1.50;;;1.40;;
21032;SDS011;10675;47.976;7.824;2023-04-03T15:45:42;1.93;;;1.70;;
21032;SDS011;10675;47.976;7.824;2023-04-03T15:48:09;3.77;;;1.30;;
21032;SDS011;10675;47.976;7.824;2023-04-03T15:50:35;1.90;;;1.23;;
21032;SDS011;10675;47.976;7.824;2023-04-03T15:53:01;1.90;;;1.40;;
21032;SDS011;10675;47.976;7.824;2023-04-03T15:55:28;2.20;;;1.47;;
21032;SDS011;10675;47.976;7.824;2023-04-03T15:57:55;1.30;;;1.20;;
21032;SDS011;10675;47.976;7.824;2023-04-03T16:00:22;2.37;;;1.40;;
21032;SDS011;10675;47.976;7.824;2023-04-03T16:02:48;1.83;;;1.30;;
21032;SDS011;10675;47.976;7.824;2023-04-03T16:05:16;1.70;;;1.23;;
21032;SDS011;10675;47.976;7.824;2023-04-03T16:07:43;1.33;;;1.20;;
21032;SDS011;10675;47.976;7.824;2023-04-03T16:10:11;1.67;;;1.57;;
21032;SDS011;10675;47.976;7.824;2023-04-03T16:12:37;1.60;;;1.37;;
21032;SDS011;10675;47.976;7.824;2023-04-03T16:15:03;1.67;;;1.57;;
21032;SDS011;10675;47.976;7.824;2023-04-03T16:17:29;1.50;;;1.40;;
21032;SDS011;10675;47.976;7.824;2023-04-03T16:19:57;2.00;;;1.63;;
21032;SDS011;10675;47.976;7.824;2023-04-03T16:22:23;3.93;;;1.97;;
21032;SDS011;10675;47.976;7.824;2023-04-03T16:24:51;1.40;;;1.30;;